Kezdőlap
METAR-TAF:

METAR-TAF

Repülőterek :

Trabzon, Törökország

földrajzi szélesség: 41-00N, földrajzi hosszúság: 039-43E, magasság: 35 m

Jelenlegi meteorológiai megfigyelések

A jelentés 48 perccel ezelõtt készült, 03:50 UTC
Szélcsend
Hőmérséklet 10°C
Páratartalom 40%
Légköri nyomás 1016 hPa
Látótávolság 10 km, vagy több
Szakadozott felhőzet 10000 lábon

METAR: LTCG 280350Z 00000KT 9999 BKN100 10/M03 Q1016 NOSIG RMK RWY29 VRB04KT

Idő: 07:38 (04:38 UTC)

Előrejelzés

A jelentés 5 órával és 58 perccel ezelõtt készült, 22:40 UTC
Az előrejelzés 28-én 00 óra UTC és 28-én 24 óra UTC között érvényes
Különbözõ irányokból fújó szél 2 kt
Látótávolság 10 km, vagy több
Szakadozott felhőzet 10000 lábon

TAF: LTCG 272240Z 2800/2824 VRB02KT 9999 BKN100

Meteorológiai megfigyelések és előrejelzések több, mint 4000 repülőtéren (METAR és TAF jelentéseket).

A térképen piros és sárga pontok jelzik az elérhető meteorológiai állomásokat.

Mozgassa az egeret a pont fölött, hogy megjelenjen az állomás neve.

Azután kattintson az időjárási megfigyelések és előrejelzések megtekintéséhez.

A térkép megváltoztatása: kattintson a fekete keresztel jelölt zöld gombra ráközelítéshez, a vonallal jelölt zöld gombra távolításhoz, vagy a zöld nyilakra a szomszédos térképek eléréséhez.


METAR-TAF: